createdAt,value
2023-05-02T00:01:59.495Z,4.60
2023-05-02T00:04:27.189Z,4.38
2023-05-02T00:06:54.685Z,4.97
2023-05-02T00:09:22.123Z,4.07
2023-05-02T00:11:49.440Z,4.22
2023-05-02T00:14:16.563Z,4.60
2023-05-02T00:16:43.899Z,3.70
2023-05-02T00:19:11.231Z,3.60
2023-05-02T00:21:38.735Z,4.20
2023-05-02T00:24:06.708Z,3.88
2023-05-02T00:26:33.714Z,4.13
2023-05-02T00:29:01.071Z,2.75
2023-05-02T00:31:28.497Z,4.00
2023-05-02T00:33:56.233Z,3.00
2023-05-02T00:36:23.917Z,2.97
2023-05-02T00:38:51.373Z,2.90
2023-05-02T00:41:18.526Z,3.15
2023-05-02T00:43:46.119Z,3.97
2023-05-02T00:46:13.861Z,4.03
2023-05-02T00:48:40.884Z,3.15
2023-05-02T00:51:12.854Z,2.90
2023-05-02T00:53:40.654Z,3.65
2023-05-02T00:56:09.351Z,3.47
2023-05-02T00:58:37.813Z,3.45
2023-05-02T01:01:29.697Z,3.30
2023-05-02T01:04:00.138Z,4.30
2023-05-02T01:07:00.811Z,2.90
2023-05-02T01:09:38.011Z,2.80
2023-05-02T01:12:33.119Z,4.35
2023-05-02T01:15:01.035Z,4.95
2023-05-02T01:17:32.263Z,3.00
2023-05-02T01:20:01.692Z,3.67
2023-05-02T01:22:30.360Z,3.17
2023-05-02T01:25:22.789Z,2.88
2023-05-02T01:28:02.208Z,2.88
2023-05-02T01:30:30.634Z,3.20
2023-05-02T01:32:58.455Z,3.70
2023-05-02T01:35:26.023Z,3.80
2023-05-02T01:37:54.637Z,3.00
2023-05-02T01:40:22.375Z,2.95
2023-05-02T01:42:50.585Z,2.50
2023-05-02T01:45:17.800Z,3.30
2023-05-02T01:47:45.216Z,2.88
2023-05-02T01:50:14.341Z,2.80
2023-05-02T01:52:41.571Z,2.20
2023-05-02T01:55:11.391Z,3.60
2023-05-02T01:57:40.915Z,2.72
2023-05-02T02:00:08.765Z,2.63
2023-05-02T02:02:44.537Z,2.33
2023-05-02T02:05:14.292Z,2.50
2023-05-02T02:07:41.661Z,2.70
2023-05-02T02:10:09.318Z,2.58
2023-05-02T02:12:42.915Z,2.00
2023-05-02T02:15:12.549Z,1.80
2023-05-02T02:17:48.772Z,2.30
2023-05-02T02:20:16.234Z,2.20
2023-05-02T02:22:43.804Z,2.25
2023-05-02T02:25:12.185Z,1.92
2023-05-02T02:27:39.611Z,1.95
2023-05-02T02:30:08.032Z,2.03
2023-05-02T02:32:35.554Z,2.35
2023-05-02T02:35:05.831Z,2.05
2023-05-02T02:37:54.067Z,2.38
2023-05-02T02:40:29.820Z,2.15
2023-05-02T02:43:20.216Z,2.33
2023-05-02T02:46:11.984Z,2.30
2023-05-02T02:48:44.764Z,2.25
2023-05-02T02:51:24.813Z,2.25
2023-05-02T02:54:25.796Z,2.00
2023-05-02T02:57:01.606Z,2.22
2023-05-02T02:59:38.554Z,2.08
2023-05-02T03:02:08.626Z,3.15
2023-05-02T03:04:38.167Z,1.38
2023-05-02T03:07:05.892Z,2.22
2023-05-02T03:09:46.805Z,1.77
2023-05-02T03:12:19.674Z,1.67
2023-05-02T03:14:49.021Z,1.45
2023-05-02T03:17:17.350Z,1.30
2023-05-02T03:19:45.915Z,1.90
2023-05-02T03:22:13.175Z,1.40
2023-05-02T03:24:41.064Z,2.13
2023-05-02T03:27:09.611Z,1.48
2023-05-02T03:29:41.423Z,1.40
2023-05-02T03:32:11.186Z,1.52
2023-05-02T03:34:41.877Z,1.58
2023-05-02T03:37:10.342Z,1.20
2023-05-02T03:39:37.647Z,1.30
2023-05-02T03:42:05.479Z,1.20
2023-05-02T03:44:32.807Z,1.52
2023-05-02T03:47:00.337Z,1.50
2023-05-02T03:49:28.874Z,1.00
2023-05-02T03:51:56.658Z,1.83
2023-05-02T03:57:00.559Z,1.60
2023-05-02T03:59:34.947Z,1.58
2023-05-02T04:02:11.927Z,1.50
2023-05-02T04:04:43.957Z,0.97
2023-05-02T04:07:18.951Z,2.08
2023-05-02T04:09:49.873Z,1.40
2023-05-02T04:12:17.517Z,1.70
2023-05-02T04:14:48.375Z,1.73
2023-05-02T04:17:16.264Z,1.50
2023-05-02T04:19:49.353Z,1.75
2023-05-02T04:22:18.061Z,1.60
2023-05-02T04:24:50.778Z,1.50
2023-05-02T04:27:19.490Z,1.60
2023-05-02T04:29:50.464Z,2.33
2023-05-02T04:32:19.208Z,1.40
2023-05-02T04:34:47.649Z,1.17
2023-05-02T04:37:16.195Z,1.60
2023-05-02T04:39:45.548Z,1.90
2023-05-02T04:42:19.564Z,2.10
2023-05-02T04:45:22.298Z,1.67
2023-05-02T04:47:50.855Z,1.27
2023-05-02T04:50:18.256Z,1.00
2023-05-02T04:52:45.342Z,1.20
2023-05-02T04:55:13.004Z,1.50
2023-05-02T04:57:40.926Z,0.90
2023-05-02T05:00:12.490Z,1.00
2023-05-02T05:02:39.848Z,1.10
2023-05-02T05:05:09.804Z,1.40
2023-05-02T05:07:37.192Z,1.45
2023-05-02T05:10:04.886Z,1.27
2023-05-02T05:12:40.951Z,1.40
2023-05-02T05:15:10.338Z,2.08
2023-05-02T05:17:38.119Z,1.70
2023-05-02T05:22:41.257Z,1.10
2023-05-02T05:25:10.601Z,1.25
2023-05-02T05:27:38.461Z,1.60
2023-05-02T05:30:08.724Z,2.00
2023-05-02T05:32:36.316Z,1.67
2023-05-02T05:35:04.283Z,1.80
2023-05-02T05:37:31.693Z,2.13
2023-05-02T05:40:01.400Z,1.60
2023-05-02T05:42:29.346Z,2.13
2023-05-02T05:45:02.381Z,2.00
2023-05-02T05:47:30.855Z,2.50
2023-05-02T05:49:58.611Z,1.75
2023-05-02T05:52:30.154Z,2.20
2023-05-02T05:55:00.402Z,1.67
2023-05-02T05:57:29.183Z,2.22
2023-05-02T05:59:57.613Z,1.65
2023-05-02T06:02:25.857Z,2.00
2023-05-02T06:04:53.373Z,1.90
2023-05-02T06:07:23.357Z,2.22
2023-05-02T06:09:50.794Z,2.45
2023-05-02T06:12:18.482Z,1.73
2023-05-02T06:14:46.365Z,1.88
2023-05-02T06:17:14.356Z,1.83
2023-05-02T06:19:42.120Z,3.55
2023-05-02T06:22:12.837Z,1.90
2023-05-02T06:24:40.288Z,1.20
2023-05-02T06:27:07.681Z,1.42
2023-05-02T06:29:35.227Z,1.40
2023-05-02T06:32:02.420Z,2.10
2023-05-02T06:34:32.970Z,2.10
2023-05-02T06:37:00.056Z,1.70
2023-05-02T06:39:27.098Z,1.55
2023-05-02T06:42:00.504Z,1.45
2023-05-02T06:44:28.975Z,1.77
2023-05-02T06:46:56.359Z,1.70
2023-05-02T06:49:23.944Z,1.23
2023-05-02T06:51:51.364Z,2.17
2023-05-02T06:54:18.742Z,1.90
2023-05-02T06:56:46.272Z,2.15
2023-05-02T06:59:13.581Z,1.95
2023-05-02T07:01:41.035Z,1.25
2023-05-02T07:04:08.823Z,1.85
2023-05-02T07:06:36.528Z,1.40
2023-05-02T07:09:04.149Z,1.70
2023-05-02T07:11:31.598Z,1.60
2023-05-02T07:13:59.025Z,1.20
2023-05-02T07:16:26.103Z,1.85
2023-05-02T07:18:53.745Z,1.38
2023-05-02T07:21:21.088Z,1.95
2023-05-02T07:23:48.486Z,2.10
2023-05-02T07:26:15.922Z,1.58
2023-05-02T07:28:43.009Z,1.63
2023-05-02T07:31:10.336Z,0.90
2023-05-02T07:33:37.670Z,1.33
2023-05-02T07:36:05.082Z,0.88
2023-05-02T07:38:32.421Z,2.30
2023-05-02T07:41:00.587Z,1.42
2023-05-02T07:43:28.031Z,1.27
2023-05-02T07:45:55.921Z,1.58
2023-05-02T07:48:23.733Z,1.55
2023-05-02T07:50:52.806Z,1.10
2023-05-02T07:53:20.366Z,1.35
2023-05-02T07:55:47.428Z,1.50
2023-05-02T07:58:14.498Z,2.20
2023-05-02T08:00:41.810Z,1.92
2023-05-02T08:03:09.691Z,1.80
2023-05-02T08:05:37.078Z,1.35
2023-05-02T08:08:04.644Z,1.35
2023-05-02T08:10:31.996Z,1.63
2023-05-02T08:12:59.116Z,1.10
2023-05-02T08:15:26.325Z,1.55
2023-05-02T08:17:53.633Z,1.10
2023-05-02T08:20:22.250Z,1.63
2023-05-02T08:22:50.185Z,1.63
2023-05-02T08:25:17.610Z,2.55
2023-05-02T08:27:45.631Z,1.88
2023-05-02T08:30:13.086Z,2.20
2023-05-02T08:32:40.961Z,1.08
2023-05-02T08:35:08.271Z,1.35
2023-05-02T08:37:36.239Z,1.38
2023-05-02T08:40:03.809Z,1.77
2023-05-02T08:42:32.630Z,2.00
2023-05-02T08:45:00.576Z,1.70
2023-05-02T08:47:28.484Z,2.10
2023-05-02T08:49:56.110Z,1.70
2023-05-02T08:52:23.667Z,1.27
2023-05-02T08:54:51.401Z,1.77
2023-05-02T08:57:18.425Z,2.08
2023-05-02T08:59:45.920Z,1.58
2023-05-02T09:02:36.393Z,0.88
2023-05-02T09:05:07.604Z,1.23
2023-05-02T09:07:48.661Z,0.80
2023-05-02T09:10:16.016Z,1.05
2023-05-02T09:12:43.264Z,2.35
2023-05-02T09:15:16.991Z,1.50
2023-05-02T09:17:47.536Z,0.90
2023-05-02T09:20:16.114Z,1.30
2023-05-02T09:22:50.689Z,1.45
2023-05-02T09:25:18.447Z,1.40
2023-05-02T09:28:04.880Z,1.42
2023-05-02T09:30:32.416Z,1.40
2023-05-02T09:32:59.949Z,1.20
2023-05-02T09:35:27.161Z,0.70
2023-05-02T09:37:58.334Z,1.08
2023-05-02T09:40:27.651Z,1.52
2023-05-02T09:42:54.815Z,0.73
2023-05-02T09:45:23.725Z,0.93
2023-05-02T09:47:51.392Z,1.00
2023-05-02T09:50:39.076Z,0.70
2023-05-02T09:53:10.702Z,0.90
2023-05-02T09:55:38.266Z,1.33
2023-05-02T09:58:06.265Z,0.70
2023-05-02T10:00:44.175Z,1.15
2023-05-02T10:03:11.508Z,1.02
2023-05-02T10:05:39.533Z,1.30
2023-05-02T10:08:07.445Z,1.10
2023-05-02T10:10:39.442Z,1.10
2023-05-02T10:13:08.611Z,0.63
2023-05-02T10:15:40.577Z,1.17
2023-05-02T10:18:15.866Z,0.90
2023-05-02T10:20:58.703Z,1.48
2023-05-02T10:23:27.603Z,1.10
2023-05-02T10:25:56.312Z,1.73
2023-05-02T10:28:24.710Z,1.55
2023-05-02T10:30:52.361Z,1.10
2023-05-02T10:33:21.455Z,1.48
2023-05-02T10:35:49.213Z,1.35
2023-05-02T10:38:22.303Z,1.48
2023-05-02T10:41:01.791Z,0.40
2023-05-02T10:43:32.398Z,0.57
2023-05-02T10:46:00.031Z,0.93
2023-05-02T10:48:27.722Z,0.80
2023-05-02T10:51:01.053Z,0.40
2023-05-02T10:56:21.184Z,1.45
2023-05-02T10:58:49.494Z,0.60
2023-05-02T11:01:29.185Z,0.90
2023-05-02T11:04:00.557Z,1.00
2023-05-02T11:06:29.455Z,0.85
2023-05-02T11:09:21.562Z,0.65
2023-05-02T11:11:49.434Z,0.95
2023-05-02T11:14:26.197Z,0.90
2023-05-02T11:16:59.713Z,0.50
2023-05-02T11:19:29.172Z,0.50
2023-05-02T11:22:27.802Z,0.63
2023-05-02T11:24:55.155Z,1.08
2023-05-02T11:27:37.672Z,0.43
2023-05-02T11:30:09.591Z,0.60
2023-05-02T11:32:46.222Z,0.60
2023-05-02T11:35:20.808Z,0.70
2023-05-02T11:37:54.748Z,1.45
2023-05-02T11:40:22.184Z,0.70
2023-05-02T11:42:49.242Z,1.00
2023-05-02T11:45:16.649Z,0.63
2023-05-02T11:47:45.758Z,0.90
2023-05-02T11:50:12.876Z,0.82
2023-05-02T11:52:41.316Z,0.82
2023-05-02T11:55:12.839Z,1.02
2023-05-02T11:57:40.603Z,1.08
2023-05-02T12:00:08.345Z,1.42
2023-05-02T12:02:47.924Z,2.08
2023-05-02T12:05:15.715Z,1.38
2023-05-02T12:07:44.807Z,2.40
2023-05-02T12:10:13.212Z,1.90
2023-05-02T12:12:41.324Z,2.00
2023-05-02T12:15:12.788Z,1.75
2023-05-02T12:17:52.965Z,1.73
2023-05-02T12:20:20.412Z,2.25
2023-05-02T12:22:47.971Z,2.40
2023-05-02T12:25:15.239Z,2.47
2023-05-02T12:27:42.353Z,2.70
2023-05-02T12:30:12.592Z,2.30
2023-05-02T12:32:45.189Z,2.70
2023-05-02T12:35:21.627Z,2.00
2023-05-02T12:37:48.885Z,1.70
2023-05-02T12:40:17.394Z,1.20
2023-05-02T12:43:00.902Z,1.08
2023-05-02T12:45:30.735Z,0.70
2023-05-02T12:47:58.122Z,0.88
2023-05-02T12:50:36.865Z,1.38
2023-05-02T12:53:04.439Z,1.20
2023-05-02T12:55:34.716Z,1.00
2023-05-02T12:58:02.428Z,1.05
2023-05-02T13:00:32.264Z,1.10
2023-05-02T13:02:59.747Z,1.25
2023-05-02T13:05:27.167Z,1.30
2023-05-02T13:07:56.331Z,1.20
2023-05-02T13:10:24.953Z,0.68
2023-05-02T13:12:52.734Z,0.90
2023-05-02T13:15:20.518Z,1.55
2023-05-02T13:17:48.431Z,1.73
2023-05-02T13:20:15.938Z,1.35
2023-05-02T13:22:43.401Z,1.20
2023-05-02T13:25:10.621Z,2.15
2023-05-02T13:27:37.964Z,1.50
2023-05-02T13:30:08.874Z,1.65
2023-05-02T13:32:37.532Z,1.40
2023-05-02T13:35:05.730Z,1.40
2023-05-02T13:37:32.844Z,2.42
2023-05-02T13:40:00.238Z,1.60
2023-05-02T13:42:27.792Z,2.10
2023-05-02T13:44:55.640Z,1.35
2023-05-02T13:47:23.216Z,2.25
2023-05-02T13:49:50.681Z,2.08
2023-05-02T13:52:18.061Z,2.40
2023-05-02T13:54:45.043Z,2.33
2023-05-02T13:57:12.450Z,1.85
2023-05-02T13:59:39.827Z,2.72
2023-05-02T14:02:07.837Z,2.75
2023-05-02T14:04:35.211Z,2.90
2023-05-02T14:07:02.262Z,2.35
2023-05-02T14:09:29.802Z,2.97
2023-05-02T14:11:58.421Z,2.25
2023-05-02T14:14:25.746Z,1.90
2023-05-02T14:16:52.827Z,2.67
2023-05-02T14:19:20.449Z,2.15
2023-05-02T14:21:47.900Z,2.75
2023-05-02T14:24:16.451Z,3.03
2023-05-02T14:26:43.807Z,1.75
2023-05-02T14:29:11.161Z,1.63
2023-05-02T14:31:38.533Z,3.30
2023-05-02T14:34:08.176Z,2.28
2023-05-02T14:36:36.192Z,3.13
2023-05-02T14:39:03.536Z,3.35
2023-05-02T14:41:30.565Z,3.90
2023-05-02T14:43:58.020Z,3.55
2023-05-02T14:46:25.468Z,3.75
2023-05-02T14:48:52.613Z,3.30
2023-05-02T14:51:20.410Z,3.53
2023-05-02T14:53:49.249Z,2.50
2023-05-02T14:56:18.806Z,4.38
2023-05-02T14:58:46.402Z,3.45
2023-05-02T15:01:21.794Z,2.45
2023-05-02T15:04:05.039Z,3.75
2023-05-02T15:06:34.926Z,3.95
2023-05-02T15:09:02.452Z,3.05
2023-05-02T15:11:30.305Z,3.30
2023-05-02T15:13:59.470Z,2.78
2023-05-02T15:16:27.248Z,3.50
2023-05-02T15:18:55.833Z,2.15
2023-05-02T15:21:23.156Z,2.38
2023-05-02T15:23:50.456Z,3.30
2023-05-02T15:26:18.111Z,2.80
2023-05-02T15:28:45.512Z,2.10
2023-05-02T15:31:12.928Z,2.65
2023-05-02T15:33:40.610Z,3.55
2023-05-02T15:36:08.308Z,3.63
2023-05-02T15:38:39.288Z,3.33
2023-05-02T15:41:09.346Z,3.42
2023-05-02T15:43:37.343Z,1.98
2023-05-02T15:46:05.033Z,2.70
2023-05-02T15:48:35.565Z,2.22
2023-05-02T15:51:03.205Z,2.50
2023-05-02T15:53:30.328Z,2.90
2023-05-02T15:55:57.674Z,1.75
2023-05-02T15:58:25.168Z,2.17
2023-05-02T16:00:52.733Z,1.33
2023-05-02T16:03:19.903Z,1.40
2023-05-02T16:05:47.558Z,2.20
2023-05-02T16:08:14.916Z,2.47
2023-05-02T16:10:43.468Z,1.50
2023-05-02T16:13:10.791Z,1.48
2023-05-02T16:15:38.897Z,2.13
2023-05-02T16:18:06.264Z,1.80
2023-05-02T16:20:36.320Z,1.98
2023-05-02T16:23:04.617Z,3.00
2023-05-02T16:25:32.409Z,3.20
2023-05-02T16:28:00.105Z,1.88
2023-05-02T16:30:27.930Z,1.92
2023-05-02T16:32:55.185Z,2.80
2023-05-02T16:35:22.702Z,1.38
2023-05-02T16:37:50.055Z,2.40
2023-05-02T16:40:18.003Z,2.00
2023-05-02T16:42:45.403Z,1.95
2023-05-02T16:45:12.819Z,1.40
2023-05-02T16:47:39.999Z,2.75
2023-05-02T16:50:08.194Z,2.17
2023-05-02T16:52:37.335Z,1.77
2023-05-02T16:55:04.877Z,1.45
2023-05-02T16:57:32.161Z,2.05
2023-05-02T17:00:00.314Z,1.40
2023-05-02T17:02:28.300Z,1.90
2023-05-02T17:04:55.566Z,1.33
2023-05-02T17:07:23.100Z,1.80
2023-05-02T17:09:50.730Z,3.10
2023-05-02T17:12:22.160Z,2.17
2023-05-02T17:14:49.519Z,2.05
2023-05-02T17:17:18.529Z,2.30
2023-05-02T17:19:45.950Z,2.78
2023-05-02T17:22:13.309Z,2.13
2023-05-02T17:24:41.973Z,1.35
2023-05-02T17:27:11.044Z,2.47
2023-05-02T17:29:38.358Z,2.30
2023-05-02T17:32:05.959Z,3.17
2023-05-02T17:34:35.670Z,2.45
2023-05-02T17:37:03.057Z,2.88
2023-05-02T17:39:30.178Z,2.33
2023-05-02T17:41:57.260Z,1.92
2023-05-02T17:44:24.627Z,3.42
2023-05-02T17:46:51.655Z,4.10
2023-05-02T17:49:18.753Z,2.63
2023-05-02T17:51:46.231Z,3.35
2023-05-02T17:54:13.426Z,4.10
2023-05-02T17:56:40.418Z,2.88
2023-05-02T17:59:07.838Z,2.92
2023-05-02T18:01:35.412Z,2.28
2023-05-02T18:04:03.813Z,3.63
2023-05-02T18:06:34.201Z,2.60
2023-05-02T18:09:01.885Z,4.20
2023-05-02T18:11:38.351Z,2.90
2023-05-02T18:14:05.938Z,2.90
2023-05-02T18:16:34.103Z,3.65
2023-05-02T18:19:01.741Z,4.03
2023-05-02T18:21:30.665Z,3.42
2023-05-02T18:23:57.707Z,3.95
2023-05-02T18:26:24.827Z,3.70
2023-05-02T18:28:52.914Z,3.35
2023-05-02T18:31:20.797Z,3.45
2023-05-02T18:33:48.022Z,3.28
2023-05-02T18:36:20.204Z,3.30
2023-05-02T18:38:47.514Z,3.85
2023-05-02T18:41:14.556Z,3.50
2023-05-02T18:43:42.207Z,3.00
2023-05-02T18:46:11.817Z,3.67
2023-05-02T18:48:39.507Z,3.17
2023-05-02T18:51:06.601Z,3.22
2023-05-02T18:53:33.980Z,3.15
2023-05-02T18:56:01.073Z,3.03
2023-05-02T18:58:28.561Z,3.13
2023-05-02T19:00:55.762Z,4.05
2023-05-02T19:03:23.517Z,3.13
2023-05-02T19:05:51.381Z,1.75
2023-05-02T19:08:18.524Z,3.47
2023-05-02T19:10:46.272Z,3.55
2023-05-02T19:13:14.251Z,3.17
2023-05-02T19:15:41.721Z,3.50
2023-05-02T19:18:09.046Z,3.92
2023-05-02T19:20:36.294Z,3.30
2023-05-02T19:23:18.926Z,3.65
2023-05-02T19:25:47.038Z,3.13
2023-05-02T19:28:16.379Z,3.83
2023-05-02T19:30:45.131Z,4.10
2023-05-02T19:33:12.445Z,3.95
2023-05-02T19:35:39.860Z,3.20
2023-05-02T19:38:07.184Z,2.60
2023-05-02T19:40:34.172Z,4.20
2023-05-02T19:43:01.546Z,4.43
2023-05-02T19:45:28.900Z,4.47
2023-05-02T19:47:56.396Z,4.38
2023-05-02T19:50:25.524Z,4.03
2023-05-02T19:52:52.726Z,3.90
2023-05-02T19:55:20.467Z,4.30
2023-05-02T19:57:48.337Z,3.88
2023-05-02T20:00:15.858Z,3.80
2023-05-02T20:02:44.335Z,3.70
2023-05-02T20:05:11.800Z,4.07
2023-05-02T20:07:38.867Z,3.95
2023-05-02T20:10:06.598Z,3.97
2023-05-02T20:12:34.086Z,4.15
2023-05-02T20:15:01.552Z,3.17
2023-05-02T20:17:28.953Z,3.60
2023-05-02T20:19:57.179Z,3.67
2023-05-02T20:22:24.089Z,3.85
2023-05-02T20:24:51.252Z,3.58
2023-05-02T20:27:18.252Z,3.85
2023-05-02T20:29:45.992Z,4.22
2023-05-02T20:32:13.650Z,3.80
2023-05-02T20:34:41.045Z,4.20
2023-05-02T20:37:10.207Z,4.68
2023-05-02T20:39:37.429Z,4.50
2023-05-02T20:42:05.392Z,4.90
2023-05-02T20:44:36.163Z,4.75
2023-05-02T20:47:06.364Z,4.78
2023-05-02T20:49:34.427Z,4.15
2023-05-02T20:52:05.346Z,4.65
2023-05-02T20:54:33.098Z,4.75
2023-05-02T20:57:00.463Z,4.35
2023-05-02T20:59:27.355Z,4.32
2023-05-02T21:01:54.749Z,4.35
2023-05-02T21:04:21.934Z,5.03
2023-05-02T21:06:49.640Z,5.07
2023-05-02T21:09:16.794Z,4.50
2023-05-02T21:11:44.359Z,4.35
2023-05-02T21:14:11.718Z,4.55
2023-05-02T21:16:39.102Z,4.40
2023-05-02T21:19:06.490Z,4.40
2023-05-02T21:21:33.644Z,4.28
2023-05-02T21:24:01.510Z,4.70
2023-05-02T21:26:28.583Z,4.72
2023-05-02T21:28:56.051Z,5.22
2023-05-02T21:31:23.049Z,4.68
2023-05-02T21:33:50.234Z,5.05
2023-05-02T21:36:17.256Z,4.53
2023-05-02T21:38:44.478Z,5.22
2023-05-02T21:41:11.628Z,4.63
2023-05-02T21:43:39.583Z,4.45
2023-05-02T21:46:07.213Z,4.97
2023-05-02T21:48:34.530Z,5.05
2023-05-02T21:51:07.268Z,5.50
2023-05-02T21:53:34.627Z,5.72
2023-05-02T21:56:02.001Z,5.90
2023-05-02T21:58:29.517Z,6.32
2023-05-02T22:00:56.850Z,6.45
2023-05-02T22:03:25.395Z,6.50
2023-05-02T22:05:54.250Z,6.53
2023-05-02T22:08:21.755Z,7.53
2023-05-02T22:10:48.737Z,8.05
2023-05-02T22:13:16.371Z,11.15
2023-05-02T22:15:46.945Z,11.00
2023-05-02T22:18:17.537Z,12.32
2023-05-02T22:20:44.920Z,11.82
2023-05-02T22:23:12.003Z,12.15
2023-05-02T22:25:43.510Z,12.13
2023-05-02T22:28:13.811Z,11.75
2023-05-02T22:30:44.830Z,10.50
2023-05-02T22:33:12.872Z,10.15
2023-05-02T22:35:40.528Z,9.35
2023-05-02T22:38:10.560Z,8.68
2023-05-02T22:40:38.139Z,8.32
2023-05-02T22:43:05.483Z,7.55
2023-05-02T22:45:33.535Z,7.68
2023-05-02T22:48:01.307Z,7.97
2023-05-02T22:50:31.067Z,7.63
2023-05-02T22:52:59.462Z,8.70
2023-05-02T22:55:26.850Z,7.55
2023-05-02T22:57:54.824Z,7.90
2023-05-02T23:00:23.560Z,6.28
2023-05-02T23:02:50.737Z,5.40
2023-05-02T23:05:17.972Z,5.90
2023-05-02T23:07:45.365Z,5.70
2023-05-02T23:10:12.478Z,5.90
2023-05-02T23:12:39.432Z,5.25
2023-05-02T23:15:07.519Z,5.65
2023-05-02T23:17:39.486Z,5.13
2023-05-02T23:20:10.907Z,4.47
2023-05-02T23:22:43.926Z,4.47
2023-05-02T23:25:11.768Z,4.95
2023-05-02T23:27:38.736Z,4.88
2023-05-02T23:30:07.565Z,4.45
2023-05-02T23:32:35.186Z,3.83
2023-05-02T23:35:03.491Z,4.28
2023-05-02T23:37:30.848Z,4.03
2023-05-02T23:39:59.821Z,3.80
2023-05-02T23:42:28.132Z,3.13
2023-05-02T23:44:57.375Z,3.20
2023-05-02T23:47:27.666Z,3.40
2023-05-02T23:49:55.023Z,3.53
2023-05-02T23:52:22.398Z,3.30
2023-05-02T23:54:49.555Z,2.50
2023-05-02T23:57:17.139Z,2.67
2023-05-02T23:59:44.192Z,2.72
